Time;durP1;ratioP1;P1;durP2;ratioP2;P2;SDS_P1;SDS_P2;PMS_P1;PMS_P2;Temp;Humidity;BMP_temperature;BMP_pressure;BME280_temperature;BME280_humidity;BME280_pressure;Samples;Min_cycle;Max_cycle;Signal;HPM_P1;HPM_P2
2023/03/28 00:01:39;;;;;;;;;;;22.00;47.10;;;;;;6153311;29;19922;-43
2023/03/28 00:04:43;;;;;;;;;;;22.00;47.10;;;;;;6152925;29;19950;-45
2023/03/28 00:07:45;;;;;;;;;;;22.30;44.40;;;;;;6153565;29;19929;-42
2023/03/28 00:10:46;;;;;;;;;;;22.00;47.20;;;;;;6153125;29;19923;-43
2023/03/28 00:13:52;;;;;;;;;;;21.90;46.60;;;;;;6153098;28;19968;-46
2023/03/28 00:16:53;;;;;;;;;;;22.70;47.60;;;;;;6153258;29;19922;-47
2023/03/28 00:19:54;;;;;;;;;;;22.30;47.30;;;;;;6152989;28;19926;-45
2023/03/28 00:22:56;;;;;;;;;;;22.20;47.20;;;;;;6152789;28;20025;-41
2023/03/28 00:26:02;;;;;;;;;;;21.60;47.00;;;;;;6153203;29;19926;-43
2023/03/28 00:29:05;;;;;;;;;;;21.90;47.10;;;;;;6152674;28;19930;-44
2023/03/28 00:32:07;;;;;;;;;;;21.90;47.30;;;;;;6152871;29;19923;-46
2023/03/28 00:35:08;;;;;;;;;;;21.80;47.10;;;;;;6152615;28;20379;-46
2023/03/28 00:38:12;;;;;;;;;;;21.90;47.10;;;;;;6152811;28;19986;-44
2023/03/28 00:41:14;;;;;;;;;;;22.00;47.20;;;;;;6152634;29;19923;-44
2023/03/28 00:44:31;;;;;;;;;;;21.90;47.10;;;;;;6152466;29;19922;-45
2023/03/28 00:47:37;;;;;;;;;;;22.20;46.10;;;;;;6152596;28;20283;-45
2023/03/28 00:50:45;;;;;;;;;;;22.10;47.10;;;;;;6152518;29;19922;-46
2023/03/28 00:53:51;;;;;;;;;;;22.10;47.20;;;;;;6152247;28;20290;-45
2023/03/28 00:56:56;;;;;;;;;;;21.80;46.90;;;;;;6152615;28;19923;-44
2023/03/28 00:59:57;;;;;;;;;;;22.10;47.20;;;;;;6152208;29;19926;-46
2023/03/28 01:03:01;;;;;;;;;;;21.70;47.10;;;;;;6152224;29;19994;-47
2023/03/28 01:06:03;;;;;;;;;;;21.70;47.20;;;;;;6152722;28;19973;-54
2023/03/28 01:09:12;;;;;;;;;;;21.90;47.10;;;;;;6151616;28;19964;-55
2023/03/28 01:12:20;;;;;;;;;;;21.80;47.20;;;;;;6151766;28;20017;-54
2023/03/28 01:15:22;;;;;;;;;;;21.60;47.00;;;;;;6152089;29;19922;-55
2023/03/28 01:18:33;;;;;;;;;;;22.20;48.00;;;;;;6192315;23;19922;-56
2023/03/28 01:21:47;;;;;;;;;;;21.50;47.10;;;;;;6175673;28;20440;-56
2023/03/28 01:25:01;;;;;;;;;;;21.70;47.00;;;;;;6175543;28;19922;-56
2023/03/28 01:28:04;;;;;;;;;;;21.60;47.00;;;;;;6175763;28;19930;-56
2023/03/28 01:31:19;;;;;;;;;;;21.90;47.20;;;;;;6175443;28;19930;-56
2023/03/28 01:34:42;;;;;;;;;;;21.70;47.10;;;;;;6175321;28;20428;-55
2023/03/28 01:37:46;;;;;;;;;;;21.60;47.10;;;;;;6175165;28;20045;-57
2023/03/28 01:40:52;;;;;;;;;;;21.60;47.30;;;;;;6175426;28;20278;-54
2023/03/28 01:43:57;;;;;;;;;;;21.60;47.20;;;;;;6175215;28;19953;-54
2023/03/28 01:47:00;;;;;;;;;;;21.60;47.20;;;;;;6175061;28;20020;-56
2023/03/28 01:50:07;;;;;;;;;;;22.30;47.50;;;;;;6175259;28;19922;-57
2023/03/28 01:53:11;;;;;;;;;;;21.80;47.40;;;;;;6175751;28;19922;-56
2023/03/28 01:56:20;;;;;;;;;;;21.50;47.30;;;;;;6174904;28;19922;-56
2023/03/28 01:59:26;;;;;;;;;;;21.40;47.00;;;;;;6175180;28;19929;-56
2023/03/28 02:02:49;;;;;;;;;;;21.50;47.20;;;;;;6174765;28;19949;-56
2023/03/28 02:06:04;;;;;;;;;;;21.50;47.20;;;;;;6174869;28;20389;-56
2023/03/28 02:09:07;;;;;;;;;;;21.60;47.30;;;;;;6175063;28;19929;-57
2023/03/28 02:12:30;;;;;;;;;;;21.60;47.40;;;;;;6174763;28;19922;-57
2023/03/28 02:15:45;;;;;;;;;;;21.50;47.20;;;;;;6174828;28;19922;-56
2023/03/28 02:19:05;;;;;;;;;;;21.50;47.20;;;;;;6174492;28;19973;-56
2023/03/28 02:22:25;;;;;;;;;;;21.80;44.70;;;;;;6178922;28;19922;-56
2023/03/28 02:25:43;;;;;;;;;;;21.40;47.10;;;;;;6179022;28;19921;-55
2023/03/28 02:29:05;;;;;;;;;;;21.70;47.40;;;;;;6178633;28;19968;-54
2023/03/28 02:32:20;;;;;;;;;;;21.60;47.30;;;;;;6178854;28;19961;-56
2023/03/28 02:35:29;;;;;;;;;;;21.50;47.30;;;;;;6178700;28;19933;-56
2023/03/28 02:38:34;;;;;;;;;;;21.50;47.10;;;;;;6178525;28;19922;-57
2023/03/28 02:41:44;;;;;;;;;;;21.70;47.30;;;;;;6178729;28;19929;-55
2023/03/28 02:44:56;;;;;;;;;;;21.50;47.20;;;;;;6178633;28;20013;-56
2023/03/28 02:48:02;;;;;;;;;;;21.70;47.30;;;;;;6178393;28;20432;-55
2023/03/28 02:51:11;;;;;;;;;;;21.40;47.10;;;;;;6178877;28;20413;-56
2023/03/28 02:54:21;;;;;;;;;;;22.00;47.50;;;;;;6161213;28;19922;-55
2023/03/28 02:57:40;;;;;;;;;;;21.40;47.20;;;;;;6179041;28;20020;-56
2023/03/28 03:00:43;;;;;;;;;;;21.40;47.30;;;;;;6178565;28;19972;-55
2023/03/28 03:03:45;;;;;;;;;;;21.70;47.40;;;;;;6178263;28;19922;-56
2023/03/28 03:06:47;;;;;;;;;;;21.50;47.50;;;;;;6178058;28;19922;-55
2023/03/28 03:09:52;;;;;;;;;;;21.60;47.50;;;;;;6178311;28;19922;-56
2023/03/28 03:12:57;;;;;;;;;;;21.30;47.30;;;;;;6178098;28;19926;-52
2023/03/28 03:15:58;;;;;;;;;;;21.70;44.80;;;;;;6177842;28;19929;-55
2023/03/28 03:19:00;;;;;;;;;;;21.30;47.40;;;;;;6177740;28;19968;-57
2023/03/28 03:22:02;;;;;;;;;;;21.30;47.30;;;;;;6177939;28;19930;-55
2023/03/28 03:25:07;;;;;;;;;;;21.80;47.60;;;;;;6177781;28;19922;-56
2023/03/28 03:28:18;;;;;;;;;;;21.40;47.20;;;;;;6177610;28;19922;-57
2023/03/28 03:31:22;;;;;;;;;;;21.30;47.30;;;;;;6177730;28;20277;-55
2023/03/28 03:34:40;;;;;;;;;;;21.30;47.40;;;;;;6177773;28;20294;-55
2023/03/28 03:37:41;;;;;;;;;;;21.30;47.30;;;;;;6177534;28;19957;-56
2023/03/28 03:40:43;;;;;;;;;;;21.20;47.40;;;;;;6177892;28;19922;-57
2023/03/28 03:43:45;;;;;;;;;;;21.30;47.40;;;;;;6177431;28;20020;-56
2023/03/28 03:46:48;;;;;;;;;;;21.40;47.50;;;;;;6177339;28;19929;-55
2023/03/28 03:49:50;;;;;;;;;;;21.90;47.70;;;;;;6177464;28;19922;-54
2023/03/28 03:52:51;;;;;;;;;;;21.30;47.40;;;;;;6177170;28;19929;-56
2023/03/28 03:56:01;;;;;;;;;;;22.00;47.70;;;;;;6177251;28;19932;-57
2023/03/28 03:59:21;;;;;;;;;;;21.30;47.20;;;;;;6162767;28;19957;-56
2023/03/28 04:02:25;;;;;;;;;;;21.30;47.30;;;;;;6128279;28;19922;-55
2023/03/28 04:05:33;;;;;;;;;;;21.70;47.50;;;;;;6176951;28;19928;-55
2023/03/28 04:08:37;;;;;;;;;;;21.20;47.40;;;;;;6176691;28;19968;-56
2023/03/28 04:11:41;;;;;;;;;;;21.30;47.30;;;;;;6176872;28;19922;-56
2023/03/28 04:14:44;;;;;;;;;;;21.20;47.30;;;;;;6176853;28;20457;-57
2023/03/28 04:18:07;;;;;;;;;;;21.40;47.40;;;;;;6176496;28;19928;-56
2023/03/28 04:21:16;;;;;;;;;;;21.20;47.20;;;;;;6176642;28;19922;-55
2023/03/28 04:24:23;;;;;;;;;;;21.10;47.10;;;;;;6176433;28;19922;-56
2023/03/28 04:27:47;;;;;;;;;;;22.00;47.50;;;;;;6176704;28;19956;-55
2023/03/28 04:30:52;;;;;;;;;;;21.50;47.30;;;;;;6176566;28;19929;-54
2023/03/28 04:37:59;;;;;;;;;;;21.70;44.80;;;;;;6176288;28;19922;-57
2023/03/28 04:41:00;;;;;;;;;;;21.20;47.20;;;;;;6176277;28;19922;-55
2023/03/28 04:44:22;;;;;;;;;;;21.30;47.30;;;;;;6175240;28;19997;-56
2023/03/28 04:47:31;;;;;;;;;;;21.20;47.10;;;;;;6176282;28;19922;-56
2023/03/28 04:50:33;;;;;;;;;;;21.10;47.00;;;;;;6175980;28;19922;-56
2023/03/28 04:53:36;;;;;;;;;;;21.10;47.20;;;;;;6175836;28;20397;-55
2023/03/28 04:56:53;;;;;;;;;;;21.10;47.20;;;;;;6175893;28;20328;-56
2023/03/28 05:00:05;;;;;;;;;;;21.10;47.20;;;;;;6176070;28;20068;-55
2023/03/28 05:03:23;;;;;;;;;;;22.00;47.40;;;;;;6175688;28;19984;-55
2023/03/28 05:06:36;;;;;;;;;;;21.00;47.10;;;;;;6176358;28;19977;-54
2023/03/28 05:09:37;;;;;;;;;;;21.50;47.40;;;;;;6175786;28;19976;-56
2023/03/28 05:12:39;;;;;;;;;;;21.10;47.10;;;;;;6175578;28;19972;-56
2023/03/28 05:15:41;;;;;;;;;;;21.00;47.10;;;;;;6175898;28;20361;-56
2023/03/28 05:18:55;;;;;;;;;;;21.00;47.00;;;;;;6175563;28;20258;-56
2023/03/28 05:22:19;;;;;;;;;;;22.00;47.50;;;;;;6175629;28;20411;-54
2023/03/28 05:25:26;;;;;;;;;;;21.00;47.00;;;;;;6175551;28;20278;-57
2023/03/28 05:28:30;;;;;;;;;;;21.10;44.30;;;;;;6175408;28;20008;-56
2023/03/28 05:31:31;;;;;;;;;;;21.00;46.90;;;;;;6175742;28;19968;-56
2023/03/28 05:34:46;;;;;;;;;;;22.00;47.60;;;;;;6175328;28;19928;-56
2023/03/28 05:37:47;;;;;;;;;;;21.00;47.00;;;;;;6175004;28;20297;-56
2023/03/28 05:40:48;;;;;;;;;;;21.90;47.60;;;;;;6175116;28;19922;-56
2023/03/28 05:43:50;;;;;;;;;;;20.90;47.10;;;;;;6175389;28;20358;-53
2023/03/28 05:47:06;;;;;;;;;;;21.00;47.10;;;;;;6175116;28;20277;-55
2023/03/28 05:50:09;;;;;;;;;;;21.00;47.00;;;;;;6174409;28;19921;-55
2023/03/28 05:53:11;;;;;;;;;;;21.50;46.00;;;;;;6175025;28;19983;-55
2023/03/28 05:56:13;;;;;;;;;;;21.10;47.10;;;;;;6173844;28;19922;-56
2023/03/28 05:59:14;;;;;;;;;;;21.00;47.10;;;;;;6174767;28;19926;-56
2023/03/28 06:02:17;;;;;;;;;;;21.10;47.00;;;;;;6174542;28;20448;-54
2023/03/28 06:05:19;;;;;;;;;;;21.90;47.40;;;;;;6158504;28;19922;-56
2023/03/28 06:08:23;;;;;;;;;;;20.90;46.90;;;;;;6174583;28;19926;-56
2023/03/28 06:11:26;;;;;;;;;;;21.50;45.50;;;;;;6174774;28;20413;-55
2023/03/28 06:14:41;;;;;;;;;;;21.00;46.40;;;;;;6174567;28;19921;-54
2023/03/28 06:18:13;;;;;;;;;;;21.80;47.40;;;;;;6174442;28;20042;-55
2023/03/28 06:21:20;;;;;;;;;;;21.50;44.50;;;;;;6174492;28;19973;-54
2023/03/28 06:24:21;;;;;;;;;;;21.80;47.30;;;;;;6174470;28;20277;-53
2023/03/28 06:27:23;;;;;;;;;;;20.90;46.90;;;;;;6175030;28;19926;-54
2023/03/28 06:30:25;;;;;;;;;;;21.40;46.30;;;;;;6174094;28;20374;-55
2023/03/28 06:33:27;;;;;;;;;;;21.00;46.90;;;;;;6174340;28;19929;-54
2023/03/28 06:36:29;;;;;;;;;;;21.90;47.40;;;;;;6156616;28;19922;-56
2023/03/28 06:39:30;;;;;;;;;;;21.30;47.10;;;;;;6174020;28;20338;-53
2023/03/28 06:42:33;;;;;;;;;;;21.50;47.20;;;;;;6174270;28;20329;-55
2023/03/28 06:45:55;;;;;;;;;;;20.90;46.70;;;;;;6174204;28;19922;-55
2023/03/28 06:49:00;;;;;;;;;;;21.80;47.30;;;;;;6173988;28;19922;-55
2023/03/28 06:52:22;;;;;;;;;;;20.90;46.40;;;;;;6173388;28;19922;-55
2023/03/28 06:55:25;;;;;;;;;;;21.40;44.10;;;;;;6174555;28;19922;-53
2023/03/28 06:58:30;;;;;;;;;;;21.00;46.70;;;;;;6173469;28;20333;-55
2023/03/28 07:01:43;;;;;;;;;;;21.40;46.30;;;;;;6173724;28;19922;-55
2023/03/28 07:04:47;;;;;;;;;;;20.90;46.30;;;;;;6173843;28;19922;-55
2023/03/28 07:07:50;;;;;;;;;;;21.60;46.90;;;;;;6176600;28;19922;-55
2023/03/28 07:10:51;;;;;;;;;;;20.90;46.50;;;;;;6178158;28;19922;-55
2023/03/28 07:13:52;;;;;;;;;;;21.50;46.30;;;;;;6178056;28;19921;-56
2023/03/28 07:16:54;;;;;;;;;;;20.90;46.50;;;;;;6177534;28;19973;-55
2023/03/28 07:19:56;;;;;;;;;;;21.70;47.00;;;;;;6177484;28;19973;-55
2023/03/28 07:22:58;;;;;;;;;;;21.10;46.50;;;;;;6177619;28;19926;-56
2023/03/28 07:25:59;;;;;;;;;;;21.80;46.80;;;;;;6177192;28;20353;-56
2023/03/28 07:29:02;;;;;;;;;;;21.00;46.20;;;;;;6177121;28;20021;-56
2023/03/28 07:32:05;;;;;;;;;;;21.70;47.00;;;;;;6177364;28;19922;-54
2023/03/28 07:35:07;;;;;;;;;;;21.10;46.00;;;;;;6177217;28;20290;-55
2023/03/28 07:38:16;;;;;;;;;;;21.90;46.70;;;;;;6177033;28;20386;-55
2023/03/28 07:41:26;;;;;;;;;;;20.90;46.30;;;;;;6177377;28;19922;-55
2023/03/28 07:44:28;;;;;;;;;;;21.70;46.70;;;;;;6176951;28;19921;-55
2023/03/28 07:47:29;;;;;;;;;;;21.00;46.20;;;;;;6176971;28;19922;-56
2023/03/28 07:50:30;;;;;;;;;;;22.00;46.70;;;;;;6177136;28;20027;-54
2023/03/28 07:53:33;;;;;;;;;;;21.10;46.00;;;;;;6176737;28;20293;-55
2023/03/28 07:56:34;;;;;;;;;;;21.60;45.90;;;;;;6176943;28;19953;-55
2023/03/28 07:59:49;;;;;;;;;;;21.30;46.30;;;;;;6146466;28;20394;-55
2023/03/28 08:02:50;;;;;;;;;;;21.90;46.50;;;;;;6176795;28;19925;-56
2023/03/28 08:05:52;;;;;;;;;;;21.20;46.00;;;;;;6177282;28;19948;-56
2023/03/28 08:08:56;;;;;;;;;;;21.50;46.40;;;;;;6176616;28;20398;-54
2023/03/28 08:12:05;;;;;;;;;;;21.20;46.10;;;;;;6176470;28;20452;-56
2023/03/28 08:15:07;;;;;;;;;;;21.80;46.40;;;;;;6176387;28;19922;-55
2023/03/28 08:18:08;;;;;;;;;;;21.20;46.10;;;;;;6174625;28;19922;-55
2023/03/28 08:21:14;;;;;;;;;;;21.90;46.60;;;;;;6176271;28;19945;-55
2023/03/28 08:24:17;;;;;;;;;;;21.10;44.10;;;;;;6176150;28;20294;-56
2023/03/28 08:27:42;;;;;;;;;;;21.40;46.20;;;;;;6175706;28;19948;-55
2023/03/28 08:30:48;;;;;;;;;;;21.20;46.20;;;;;;6176134;28;19922;-54
2023/03/28 08:33:51;;;;;;;;;;;21.90;46.30;;;;;;6176171;28;19922;-56
2023/03/28 08:36:58;;;;;;;;;;;21.20;45.80;;;;;;6175873;28;20349;-56
2023/03/28 08:40:09;;;;;;;;;;;21.90;46.10;;;;;;6176395;28;19993;-56
2023/03/28 08:43:23;;;;;;;;;;;21.30;45.80;;;;;;6143894;28;19922;-55
2023/03/28 08:46:27;;;;;;;;;;;22.00;46.10;;;;;;6175965;28;20340;-56
2023/03/28 08:49:29;;;;;;;;;;;21.20;45.60;;;;;;6176163;28;19922;-55
2023/03/28 08:52:31;;;;;;;;;;;21.80;46.00;;;;;;6175865;28;19922;-54
2023/03/28 08:55:36;;;;;;;;;;;21.20;45.40;;;;;;6175777;28;20453;-55
2023/03/28 08:58:46;;;;;;;;;;;22.10;46.10;;;;;;6176070;28;20298;-55
2023/03/28 09:01:48;;;;;;;;;;;21.20;45.40;;;;;;6175807;28;19922;-55
2023/03/28 09:04:50;;;;;;;;;;;22.10;46.20;;;;;;6175623;28;19929;-56
2023/03/28 09:07:58;;;;;;;;;;;21.40;45.60;;;;;;6158709;28;19922;-56
2023/03/28 09:11:05;;;;;;;;;;;21.70;45.60;;;;;;6175574;28;19922;-55
2023/03/28 09:14:15;;;;;;;;;;;21.30;45.50;;;;;;6175496;28;19930;-56
2023/03/28 09:17:19;;;;;;;;;;;21.80;45.60;;;;;;6175342;28;19921;-56
2023/03/28 09:20:26;;;;;;;;;;;21.30;45.40;;;;;;6158306;28;19922;-57
2023/03/28 09:23:55;;;;;;;;;;;21.60;43.80;;;;;;6175208;28;19932;-55
2023/03/28 09:27:16;;;;;;;;;;;21.50;45.60;;;;;;6175138;28;20000;-55
2023/03/28 09:30:19;;;;;;;;;;;21.90;45.70;;;;;;6174869;28;19922;-56
2023/03/28 09:33:25;;;;;;;;;;;21.40;45.30;;;;;;6158047;28;20311;-55
2023/03/28 09:36:30;;;;;;;;;;;21.90;45.60;;;;;;6126641;28;19922;-56
2023/03/28 09:39:52;;;;;;;;;;;21.50;45.30;;;;;;6160501;28;20394;-56
2023/03/28 09:43:03;;;;;;;;;;;21.80;45.40;;;;;;6175002;28;19933;-55
2023/03/28 09:46:20;;;;;;;;;;;21.40;45.20;;;;;;6175022;28;19926;-56
2023/03/28 09:49:33;;;;;;;;;;;21.90;45.40;;;;;;6159590;28;19925;-55
2023/03/28 09:52:40;;;;;;;;;;;21.40;45.10;;;;;;6175007;28;19957;-54
2023/03/28 09:55:41;;;;;;;;;;;22.20;45.60;;;;;;6174722;28;19922;-56
2023/03/28 09:58:52;;;;;;;;;;;21.40;45.10;;;;;;6175012;28;19922;-56
2023/03/28 10:02:23;;;;;;;;;;;22.50;45.70;;;;;;6159202;28;20352;-54
2023/03/28 10:05:30;;;;;;;;;;;21.40;45.00;;;;;;6174492;28;20389;-55
2023/03/28 10:08:39;;;;;;;;;;;22.30;45.40;;;;;;6158116;28;19940;-55
2023/03/28 10:11:54;;;;;;;;;;;21.60;45.10;;;;;;6159549;28;19922;-55
2023/03/28 10:14:58;;;;;;;;;;;22.10;45.30;;;;;;6157835;28;19926;-56
2023/03/28 10:18:21;;;;;;;;;;;21.50;45.20;;;;;;6174252;28;19922;-56
2023/03/28 10:21:40;;;;;;;;;;;22.30;45.40;;;;;;6174681;28;20290;-55
2023/03/28 10:24:46;;;;;;;;;;;21.80;45.00;;;;;;6174386;28;20319;-55
2023/03/28 10:27:50;;;;;;;;;;;22.10;44.20;;;;;;6174269;28;19922;-55
2023/03/28 10:30:53;;;;;;;;;;;21.90;45.20;;;;;;6157107;28;19958;-55
2023/03/28 10:33:56;;;;;;;;;;;22.40;45.60;;;;;;6174245;28;19928;-55
2023/03/28 10:37:30;;;;;;;;;;;21.60;44.90;;;;;;6159372;28;19926;-55
2023/03/28 10:40:50;;;;;;;;;;;22.20;43.30;;;;;;6161812;28;19922;-55
2023/03/28 10:44:18;;;;;;;;;;;21.70;44.80;;;;;;6178424;28;19928;-54
2023/03/28 10:47:28;;;;;;;;;;;22.20;45.00;;;;;;6162468;28;19929;-55
2023/03/28 10:50:39;;;;;;;;;;;21.50;44.80;;;;;;6178394;28;19922;-55
2023/03/28 10:53:48;;;;;;;;;;;22.40;45.10;;;;;;6177926;28;19926;-55
2023/03/28 10:56:53;;;;;;;;;;;22.00;44.70;;;;;;6178054;28;19939;-55
2023/03/28 11:00:09;;;;;;;;;;;22.40;44.90;;;;;;6162265;28;20418;-55
2023/03/28 11:03:17;;;;;;;;;;;22.00;44.70;;;;;;6178040;28;20365;-55
2023/03/28 11:06:25;;;;;;;;;;;22.20;44.70;;;;;;6160996;28;20028;-54
2023/03/28 11:09:33;;;;;;;;;;;21.60;44.50;;;;;;6177624;28;19922;-55
2023/03/28 11:12:58;;;;;;;;;;;22.20;44.60;;;;;;6177186;28;20338;-55
2023/03/28 11:16:10;;;;;;;;;;;21.80;44.40;;;;;;6178164;28;19929;-55
2023/03/28 11:19:29;;;;;;;;;;;22.40;44.80;;;;;;6177486;28;19929;-56
2023/03/28 11:22:39;;;;;;;;;;;21.80;44.40;;;;;;6177925;28;20016;-55
2023/03/28 11:25:45;;;;;;;;;;;22.60;44.80;;;;;;6177602;28;19922;-55
2023/03/28 11:29:12;;;;;;;;;;;21.50;44.20;;;;;;6177590;28;19926;-56
2023/03/28 11:32:19;;;;;;;;;;;22.60;44.80;;;;;;6177183;28;19964;-55
2023/03/28 11:35:26;;;;;;;;;;;21.80;44.50;;;;;;6160745;28;19922;-55
2023/03/28 11:38:30;;;;;;;;;;;21.70;44.40;;;;;;6177323;28;19929;-56
2023/03/28 11:41:34;;;;;;;;;;;21.70;44.30;;;;;;6177432;28;19922;-55
2023/03/28 11:44:45;;;;;;;;;;;22.50;44.60;;;;;;6177204;28;19922;-55
2023/03/28 11:47:50;;;;;;;;;;;21.70;44.20;;;;;;6177625;28;19944;-56
2023/03/28 11:51:00;;;;;;;;;;;22.50;44.70;;;;;;6160377;28;19929;-55
2023/03/28 11:54:16;;;;;;;;;;;21.80;44.20;;;;;;6162094;28;19922;-55
2023/03/28 11:57:19;;;;;;;;;;;22.60;44.50;;;;;;6177262;28;19980;-56
2023/03/28 12:00:28;;;;;;;;;;;21.70;43.90;;;;;;6160278;28;20358;-56
2023/03/28 12:03:45;;;;;;;;;;;22.60;44.50;;;;;;6176434;28;20481;-56
2023/03/28 12:07:11;;;;;;;;;;;21.70;44.10;;;;;;6176737;28;19926;-56
2023/03/28 12:10:20;;;;;;;;;;;22.30;41.50;;;;;;6177127;28;19922;-56
2023/03/28 12:13:27;;;;;;;;;;;22.30;45.00;;;;;;6176677;28;19945;-56
2023/03/28 12:16:36;;;;;;;;;;;21.80;44.00;;;;;;6160288;28;20461;-55
2023/03/28 12:19:39;;;;;;;;;;;22.60;44.30;;;;;;6176525;28;19972;-56
2023/03/28 12:22:49;;;;;;;;;;;21.80;43.90;;;;;;6176586;28;20397;-56
2023/03/28 12:26:05;;;;;;;;;;;22.70;44.30;;;;;;6176338;28;19973;-56
2023/03/28 12:29:09;;;;;;;;;;;21.70;43.70;;;;;;6176175;28;20017;-56
2023/03/28 12:32:23;;;;;;;;;;;22.20;43.90;;;;;;6159131;28;20064;-57
2023/03/28 12:35:37;;;;;;;;;;;21.90;43.70;;;;;;6176666;28;19926;-55
2023/03/28 12:38:49;;;;;;;;;;;22.70;44.20;;;;;;6176171;28;20008;-56
2023/03/28 12:42:03;;;;;;;;;;;21.70;43.70;;;;;;6175972;28;19945;-55
2023/03/28 12:45:08;;;;;;;;;;;22.20;44.00;;;;;;6176432;28;19922;-56
2023/03/28 12:48:12;;;;;;;;;;;22.00;43.80;;;;;;6176046;28;19944;-55
2023/03/28 12:51:16;;;;;;;;;;;22.80;44.20;;;;;;6175675;28;20009;-55
2023/03/28 12:54:24;;;;;;;;;;;21.90;43.70;;;;;;6176027;28;19929;-55
2023/03/28 12:57:42;;;;;;;;;;;22.50;44.00;;;;;;6175619;28;19961;-55
2023/03/28 13:01:14;;;;;;;;;;;21.90;43.50;;;;;;6161353;28;19921;-56
2023/03/28 13:04:38;;;;;;;;;;;22.40;43.60;;;;;;6174891;28;20335;-56
2023/03/28 13:07:59;;;;;;;;;;;22.00;43.60;;;;;;6175482;28;19926;-56
2023/03/28 13:11:04;;;;;;;;;;;22.60;43.80;;;;;;6175278;28;19921;-55
2023/03/28 13:14:17;;;;;;;;;;;22.10;43.70;;;;;;6158328;28;19969;-56
2023/03/28 13:17:20;;;;;;;;;;;22.50;43.70;;;;;;6175296;28;19930;-56
2023/03/28 13:20:25;;;;;;;;;;;22.00;43.30;;;;;;6175621;28;19922;-55
2023/03/28 13:23:28;;;;;;;;;;;22.20;43.50;;;;;;6158257;28;19925;-56
2023/03/28 13:26:52;;;;;;;;;;;21.90;43.30;;;;;;6175788;28;19922;-55
2023/03/28 13:30:02;;;;;;;;;;;22.50;43.60;;;;;;6174748;28;19957;-56
2023/03/28 13:33:06;;;;;;;;;;;22.00;43.60;;;;;;6175116;28;20366;-56
2023/03/28 13:36:17;;;;;;;;;;;22.60;43.70;;;;;;6157783;28;20330;-56
2023/03/28 13:39:21;;;;;;;;;;;21.90;43.10;;;;;;6175364;28;19922;-56
2023/03/28 13:42:26;;;;;;;;;;;22.80;43.80;;;;;;6157669;28;20286;-56
2023/03/28 13:45:28;;;;;;;;;;;22.00;43.20;;;;;;6157525;28;19922;-56
2023/03/28 13:48:33;;;;;;;;;;;22.80;43.90;;;;;;6175239;28;20392;-56
2023/03/28 13:51:37;;;;;;;;;;;22.10;43.30;;;;;;6174584;28;19929;-55
2023/03/28 13:54:38;;;;;;;;;;;22.50;43.40;;;;;;6174678;28;19968;-56
2023/03/28 13:57:40;;;;;;;;;;;22.10;43.30;;;;;;6174814;28;19922;-55
2023/03/28 14:00:42;;;;;;;;;;;22.90;43.80;;;;;;6174677;28;20314;-55
2023/03/28 14:03:45;;;;;;;;;;;22.50;43.40;;;;;;6174421;28;19922;-55
2023/03/28 14:06:49;;;;;;;;;;;22.90;43.50;;;;;;6174169;28;19922;-55
2023/03/28 14:09:52;;;;;;;;;;;22.20;43.20;;;;;;6157095;28;19922;-55
2023/03/28 14:13:00;;;;;;;;;;;22.40;43.30;;;;;;6174102;28;19969;-56
2023/03/28 14:16:04;;;;;;;;;;;22.30;43.10;;;;;;6173541;28;19922;-56
2023/03/28 14:19:07;;;;;;;;;;;22.90;43.60;;;;;;6174529;28;20418;-55
2023/03/28 14:22:12;;;;;;;;;;;22.30;43.10;;;;;;6173990;28;19922;-55
2023/03/28 14:25:14;;;;;;;;;;;22.60;43.30;;;;;;6156782;28;19922;-55
2023/03/28 14:28:16;;;;;;;;;;;22.20;43.10;;;;;;6156950;28;19921;-55
2023/03/28 14:31:27;;;;;;;;;;;23.00;43.60;;;;;;6174457;28;20255;-56
2023/03/28 14:34:30;;;;;;;;;;;22.20;43.00;;;;;;6156933;28;20278;-56
2023/03/28 14:37:32;;;;;;;;;;;22.70;43.30;;;;;;6157836;28;19945;-56
2023/03/28 14:40:34;;;;;;;;;;;22.30;43.10;;;;;;6173981;28;20384;-54
2023/03/28 14:43:36;;;;;;;;;;;23.00;43.40;;;;;;6174311;28;20294;-55
2023/03/28 14:46:39;;;;;;;;;;;22.40;43.10;;;;;;6173822;28;19929;-56
2023/03/28 14:49:43;;;;;;;;;;;23.00;43.60;;;;;;6173949;28;19929;-56
2023/03/28 14:52:45;;;;;;;;;;;22.40;43.20;;;;;;6174019;28;20358;-55
2023/03/28 14:55:48;;;;;;;;;;;23.30;43.60;;;;;;6140054;28;19980;-55
2023/03/28 14:58:51;;;;;;;;;;;22.20;43.00;;;;;;6174119;28;19956;-55
2023/03/28 15:01:53;;;;;;;;;;;22.90;43.30;;;;;;6156768;28;20378;-55
2023/03/28 15:04:56;;;;;;;;;;;22.50;43.20;;;;;;6173544;28;19973;-55
2023/03/28 15:07:59;;;;;;;;;;;23.30;43.50;;;;;;6173051;28;19938;-55
2023/03/28 15:11:07;;;;;;;;;;;22.30;42.90;;;;;;6173502;28;19965;-56
2023/03/28 15:14:12;;;;;;;;;;;23.20;43.40;;;;;;6173394;28;19922;-56
2023/03/28 15:17:17;;;;;;;;;;;22.40;42.90;;;;;;6173273;28;20033;-55
2023/03/28 15:20:21;;;;;;;;;;;23.20;43.30;;;;;;6173797;28;20294;-56
2023/03/28 15:23:26;;;;;;;;;;;22.40;43.00;;;;;;6173936;28;19929;-55
2023/03/28 15:26:29;;;;;;;;;;;22.70;43.10;;;;;;6173293;28;20047;-56
2023/03/28 15:29:33;;;;;;;;;;;22.50;43.00;;;;;;6177254;28;19929;-56
2023/03/28 15:32:35;;;;;;;;;;;23.20;43.30;;;;;;6177462;28;19985;-55
2023/03/28 15:35:38;;;;;;;;;;;22.50;43.10;;;;;;6177187;28;19926;-56
2023/03/28 15:38:39;;;;;;;;;;;22.90;43.20;;;;;;6177244;28;19922;-54
2023/03/28 15:41:42;;;;;;;;;;;22.50;42.90;;;;;;6177735;28;19929;-55
2023/03/28 15:44:45;;;;;;;;;;;23.00;43.10;;;;;;6159713;28;20381;-56
2023/03/28 15:47:47;;;;;;;;;;;22.50;42.90;;;;;;6177367;28;19961;-55
2023/03/28 15:50:50;;;;;;;;;;;23.10;43.20;;;;;;6159764;28;20008;-55
2023/03/28 15:53:51;;;;;;;;;;;22.50;42.90;;;;;;6177605;28;20367;-56
2023/03/28 15:56:55;;;;;;;;;;;23.10;43.10;;;;;;6177159;28;20329;-55
2023/03/28 15:59:57;;;;;;;;;;;22.60;42.90;;;;;;6177217;28;20357;-56
2023/03/28 16:03:14;;;;;;;;;;;23.30;43.40;;;;;;6159534;28;20440;-55
2023/03/28 16:06:17;;;;;;;;;;;23.00;43.20;;;;;;6159503;28;19964;-55
2023/03/28 16:09:33;;;;;;;;;;;23.20;43.40;;;;;;6161349;28;19926;-55
2023/03/28 16:12:35;;;;;;;;;;;22.80;43.00;;;;;;6176612;28;19923;-56
2023/03/28 16:15:56;;;;;;;;;;;23.30;43.80;;;;;;6176273;28;19977;-56
2023/03/28 16:19:19;;;;;;;;;;;22.60;43.00;;;;;;6176476;28;20398;-57
2023/03/28 16:22:24;;;;;;;;;;;23.40;43.50;;;;;;6160225;28;20318;-56
2023/03/28 16:25:26;;;;;;;;;;;23.00;43.40;;;;;;6176400;28;19922;-56
2023/03/28 16:28:27;;;;;;;;;;;23.20;43.60;;;;;;6176735;28;20289;-56
2023/03/28 16:31:29;;;;;;;;;;;22.70;43.20;;;;;;6176543;28;20377;-56
2023/03/28 16:34:32;;;;;;;;;;;23.60;43.80;;;;;;6176277;28;19925;-55
2023/03/28 16:37:34;;;;;;;;;;;22.70;43.30;;;;;;6176496;28;19922;-55
2023/03/28 16:40:36;;;;;;;;;;;23.50;43.90;;;;;;6175324;28;20289;-55
2023/03/28 16:43:39;;;;;;;;;;;22.70;43.20;;;;;;6158843;28;19972;-55
2023/03/28 16:46:40;;;;;;;;;;;22.90;42.80;;;;;;6176242;28;19921;-55
2023/03/28 16:49:41;;;;;;;;;;;22.70;43.40;;;;;;6176070;28;19961;-56
2023/03/28 16:52:44;;;;;;;;;;;23.50;43.90;;;;;;6176168;28;19960;-55
2023/03/28 16:55:49;;;;;;;;;;;22.60;43.40;;;;;;6176381;28;20333;-56
2023/03/28 16:58:50;;;;;;;;;;;23.20;43.70;;;;;;6176021;28;19953;-55
2023/03/28 17:01:52;;;;;;;;;;;22.90;43.40;;;;;;6175894;28;20394;-56
2023/03/28 17:04:53;;;;;;;;;;;23.50;44.00;;;;;;6176151;28;19980;-54
2023/03/28 17:07:55;;;;;;;;;;;22.80;43.30;;;;;;6176215;28;19989;-56
2023/03/28 17:10:57;;;;;;;;;;;23.50;43.90;;;;;;6175616;28;19946;-55
2023/03/28 17:13:59;;;;;;;;;;;22.80;43.30;;;;;;6175421;28;19945;-55
2023/03/28 17:17:00;;;;;;;;;;;23.60;44.00;;;;;;6175809;28;19922;-55
2023/03/28 17:20:02;;;;;;;;;;;22.70;43.30;;;;;;6175456;28;19945;-55
2023/03/28 17:23:04;;;;;;;;;;;23.40;43.70;;;;;;6175328;28;19922;-54
2023/03/28 17:26:07;;;;;;;;;;;22.90;43.60;;;;;;6175483;28;19922;-55
2023/03/28 17:29:10;;;;;;;;;;;23.20;43.00;;;;;;6158370;28;19922;-56
2023/03/28 17:32:12;;;;;;;;;;;22.90;41.60;;;;;;6127116;28;19972;-55
2023/03/28 17:35:13;;;;;;;;;;;23.70;44.10;;;;;;6175450;28;19925;-55
2023/03/28 17:38:15;;;;;;;;;;;22.80;43.50;;;;;;6175241;28;19922;-55
2023/03/28 17:41:17;;;;;;;;;;;23.70;44.10;;;;;;6175084;28;19926;-55
2023/03/28 17:44:22;;;;;;;;;;;22.90;43.70;;;;;;6158433;28;20025;-55
2023/03/28 17:47:26;;;;;;;;;;;23.30;43.90;;;;;;6175205;28;20386;-56
2023/03/28 17:50:28;;;;;;;;;;;22.80;43.70;;;;;;6174772;28;19928;-55
2023/03/28 17:53:31;;;;;;;;;;;23.10;44.00;;;;;;6175230;28;20404;-55
2023/03/28 17:56:32;;;;;;;;;;;22.90;43.90;;;;;;6175047;28;19929;-55
2023/03/28 17:59:35;;;;;;;;;;;23.20;43.80;;;;;;6174873;28;19922;-55
2023/03/28 18:02:39;;;;;;;;;;;22.90;43.40;;;;;;6175288;28;19945;-56
2023/03/28 18:05:52;;;;;;;;;;;23.60;44.40;;;;;;6174940;28;19929;-55
2023/03/28 18:08:57;;;;;;;;;;;23.10;44.00;;;;;;6174772;28;19922;-55
2023/03/28 18:11:58;;;;;;;;;;;23.40;44.20;;;;;;6174882;28;19926;-56